Aeroporto :
LOGIN :

Iscrizione | Disclaimer

   EN    FR    IT 

 










Sommario :    VFR   VFR Marginale   IFR   IFR Intensivo   IFR Molto Intensivo
Visibilità : 
Base nubi : 
>= 8 km
>= 3000ft
5 / 8 km
1000 / 3000 ft
1500m / 5 km
500 / 1000 ft
800 / 1500m
200 / 500 ft
< 800m
< 200 ft
Simboli :   Temporali  Nebbia  Neve Forte  Precipitazioni Forti  Vento > 20 kt
SIGMETs :   Varie  Temporali  Ghiacco  Turbolenza  Onda orograficha  Ceneri Vulcaniche






- Altitudine del aeroporto : 33 ft
- Codice IATA : MHZ


EGUN - RAF Mildenhall

ULTIMO METAR :
  • 061756Z AUTO 22007KT 9999 FEW055 27/17 A3002 RMK AO2 SLP168 60000 T02690174 10277 20231 56004 $

METARs OBSOLETI :
  • 061726Z AUTO 21009KT 9999 SCT048 28/18 A3001 RMK AO2 SLP165 $
  • 061701Z AUTO 20009KT 9999 BKN048 BKN060 27/18 A3002 RMK AO2 SLP168 $
  • 061633Z AUTO 20005KT 9999 SCT040 BKN050 27/18 A3002 RMK AO2 RAB21E31RAB32E33 SLP168 $
  • 061621Z AUTO 00000KT 9999 -RA SCT041 BKN055 26/18 A3002 RMK AO2 RAB21 SLP168 $
  • 061556Z AUTO 22007KT 9999 SCT042 BKN050 27/18 A3002 RMK AO2 SLP168 T02730177 $
  • 061526Z AUTO 21009KT 9999 SCT036 BKN044 26/18 A3003 RMK AO2 SLP172 $

TAF TAF EGUN
Valido dal 06 a 12 ore il 07 a 18 ore UTC


061200Z 0612/0718 20010G15KT 9999 BKN025 QNH3000INS
BECMG 0617/0618 16012KT 9999 FEW060 QNH3000INS
BECMG 0623/0624 VRB03KT 9999 SKC QNH3003INS
BECMG 0714/0715 18009KT 9999 SCT100 QNH3003INS TX28/0614Z TN14/0705Z



MetMap, La meteo Aeronautica in un colpo d'occhio ! - Copyright ORBIFLY Dicembre 2007 - Disclaimer

ORBIFLY MET'MAP TEAM :

Programmazione e sviluppo : Alexandra Zaïnal
Concezione : Baudouin d'Aumeries
Aiuto per la programmazione : Marc-Olivier Méhu
Supporto tecnico e logistico : Manuel Goepfert
Aiuto per la traduzione : Arnaldo La Scala

Contatto : metmap@orbifly.com




FONTI E CREDITI :

   NOAA